sensor_id;sensor_type;location;lat;lon;timestamp;temperature;humidity
21616;DHT22;10970;48.714;9.584;2023-05-13T00:00:50;11.40;99.90
21616;DHT22;10970;48.714;9.584;2023-05-13T00:03:16;11.40;99.90
21616;DHT22;10970;48.714;9.584;2023-05-13T00:05:42;11.30;99.90
21616;DHT22;10970;48.714;9.584;2023-05-13T00:08:07;11.30;99.90
21616;DHT22;10970;48.714;9.584;2023-05-13T00:10:33;11.30;99.90
21616;DHT22;10970;48.714;9.584;2023-05-13T00:12:59;11.30;99.90
21616;DHT22;10970;48.714;9.584;2023-05-13T00:15:25;11.20;99.90
21616;DHT22;10970;48.714;9.584;2023-05-13T00:17:51;11.20;99.90
21616;DHT22;10970;48.714;9.584;2023-05-13T00:20:17;11.20;99.90
21616;DHT22;10970;48.714;9.584;2023-05-13T00:22:43;11.20;99.90
21616;DHT22;10970;48.714;9.584;2023-05-13T00:25:09;11.20;99.90
21616;DHT22;10970;48.714;9.584;2023-05-13T00:27:35;11.10;99.90
21616;DHT22;10970;48.714;9.584;2023-05-13T00:30:01;11.10;99.90
21616;DHT22;10970;48.714;9.584;2023-05-13T00:32:26;11.10;99.90
21616;DHT22;10970;48.714;9.584;2023-05-13T00:34:52;11.10;99.90
21616;DHT22;10970;48.714;9.584;2023-05-13T00:37:18;11.00;99.90
21616;DHT22;10970;48.714;9.584;2023-05-13T00:39:44;11.00;99.90
21616;DHT22;10970;48.714;9.584;2023-05-13T00:42:09;11.00;99.90
21616;DHT22;10970;48.714;9.584;2023-05-13T00:44:36;11.00;99.90
21616;DHT22;10970;48.714;9.584;2023-05-13T00:47:06;11.10;99.90
21616;DHT22;10970;48.714;9.584;2023-05-13T00:49:32;11.00;99.90
21616;DHT22;10970;48.714;9.584;2023-05-13T00:51:59;11.10;99.90
21616;DHT22;10970;48.714;9.584;2023-05-13T00:54:24;11.10;99.90
21616;DHT22;10970;48.714;9.584;2023-05-13T00:56:50;11.00;99.90
21616;DHT22;10970;48.714;9.584;2023-05-13T00:59:25;11.00;99.90
21616;DHT22;10970;48.714;9.584;2023-05-13T01:02:21;11.00;99.90
21616;DHT22;10970;48.714;9.584;2023-05-13T01:05:41;11.00;99.90
21616;DHT22;10970;48.714;9.584;2023-05-13T01:07:52;11.00;99.90
21616;DHT22;10970;48.714;9.584;2023-05-13T01:10:32;11.00;99.90
21616;DHT22;10970;48.714;9.584;2023-05-13T01:13:08;11.00;99.90
21616;DHT22;10970;48.714;9.584;2023-05-13T01:15:49;10.90;99.90
21616;DHT22;10970;48.714;9.584;2023-05-13T01:18:27;10.80;99.90
21616;DHT22;10970;48.714;9.584;2023-05-13T01:20:53;10.80;99.90
21616;DHT22;10970;48.714;9.584;2023-05-13T01:23:20;10.80;99.90
21616;DHT22;10970;48.714;9.584;2023-05-13T01:25:46;10.70;99.90
21616;DHT22;10970;48.714;9.584;2023-05-13T01:28:13;10.60;99.90
21616;DHT22;10970;48.714;9.584;2023-05-13T01:30:39;10.60;99.90
21616;DHT22;10970;48.714;9.584;2023-05-13T01:33:04;10.50;99.90
21616;DHT22;10970;48.714;9.584;2023-05-13T01:35:31;10.40;99.90
21616;DHT22;10970;48.714;9.584;2023-05-13T01:37:57;10.30;99.90
21616;DHT22;10970;48.714;9.584;2023-05-13T01:40:24;10.30;99.90
21616;DHT22;10970;48.714;9.584;2023-05-13T01:42:50;10.20;99.90
21616;DHT22;10970;48.714;9.584;2023-05-13T01:45:15;10.20;99.90
21616;DHT22;10970;48.714;9.584;2023-05-13T01:47:41;10.10;99.90
21616;DHT22;10970;48.714;9.584;2023-05-13T01:50:07;10.10;99.90
21616;DHT22;10970;48.714;9.584;2023-05-13T01:52:33;10.10;99.90
21616;DHT22;10970;48.714;9.584;2023-05-13T01:54:59;10.10;99.90
21616;DHT22;10970;48.714;9.584;2023-05-13T01:57:24;10.10;99.90
21616;DHT22;10970;48.714;9.584;2023-05-13T01:59:50;10.00;99.90
21616;DHT22;10970;48.714;9.584;2023-05-13T02:02:17;10.00;99.90
21616;DHT22;10970;48.714;9.584;2023-05-13T02:04:43;10.00;99.90
21616;DHT22;10970;48.714;9.584;2023-05-13T02:07:08;10.00;99.90
21616;DHT22;10970;48.714;9.584;2023-05-13T02:09:34;10.00;99.90
21616;DHT22;10970;48.714;9.584;2023-05-13T02:12:00;10.00;99.90
21616;DHT22;10970;48.714;9.584;2023-05-13T02:14:26;10.00;99.90
21616;DHT22;10970;48.714;9.584;2023-05-13T02:16:51;10.00;99.90
21616;DHT22;10970;48.714;9.584;2023-05-13T02:19:17;10.00;99.90
21616;DHT22;10970;48.714;9.584;2023-05-13T02:21:44;10.10;99.90
21616;DHT22;10970;48.714;9.584;2023-05-13T02:24:12;10.10;99.90
21616;DHT22;10970;48.714;9.584;2023-05-13T02:26:38;10.10;99.90
21616;DHT22;10970;48.714;9.584;2023-05-13T02:29:06;10.10;99.90
21616;DHT22;10970;48.714;9.584;2023-05-13T02:31:32;10.10;99.90
21616;DHT22;10970;48.714;9.584;2023-05-13T02:33:57;10.10;99.90
21616;DHT22;10970;48.714;9.584;2023-05-13T02:36:23;10.10;99.90
21616;DHT22;10970;48.714;9.584;2023-05-13T02:38:49;10.10;99.90
21616;DHT22;10970;48.714;9.584;2023-05-13T02:41:14;10.10;99.90
21616;DHT22;10970;48.714;9.584;2023-05-13T02:43:40;10.10;99.90
21616;DHT22;10970;48.714;9.584;2023-05-13T02:46:05;10.10;99.90
21616;DHT22;10970;48.714;9.584;2023-05-13T02:48:31;10.10;99.90
21616;DHT22;10970;48.714;9.584;2023-05-13T02:50:57;10.10;99.90
21616;DHT22;10970;48.714;9.584;2023-05-13T02:53:22;10.10;99.90
21616;DHT22;10970;48.714;9.584;2023-05-13T02:55:48;10.10;99.90
21616;DHT22;10970;48.714;9.584;2023-05-13T02:58:14;10.00;99.90
21616;DHT22;10970;48.714;9.584;2023-05-13T03:00:39;10.00;99.90
21616;DHT22;10970;48.714;9.584;2023-05-13T03:03:05;10.00;99.90
21616;DHT22;10970;48.714;9.584;2023-05-13T03:05:31;10.00;99.90
21616;DHT22;10970;48.714;9.584;2023-05-13T03:07:57;10.00;99.90
21616;DHT22;10970;48.714;9.584;2023-05-13T03:10:22;10.00;99.90
21616;DHT22;10970;48.714;9.584;2023-05-13T03:12:48;10.00;99.90
21616;DHT22;10970;48.714;9.584;2023-05-13T03:15:14;10.00;99.90
21616;DHT22;10970;48.714;9.584;2023-05-13T03:17:40;9.90;99.90
21616;DHT22;10970;48.714;9.584;2023-05-13T03:20:07;9.90;99.90
21616;DHT22;10970;48.714;9.584;2023-05-13T03:22:32;9.90;99.90
21616;DHT22;10970;48.714;9.584;2023-05-13T03:24:58;9.90;99.90
21616;DHT22;10970;48.714;9.584;2023-05-13T03:27:24;9.90;99.90
21616;DHT22;10970;48.714;9.584;2023-05-13T03:29:49;9.90;99.90
21616;DHT22;10970;48.714;9.584;2023-05-13T03:32:15;9.90;99.90
21616;DHT22;10970;48.714;9.584;2023-05-13T03:34:41;9.90;99.90
21616;DHT22;10970;48.714;9.584;2023-05-13T03:37:06;9.80;99.90
21616;DHT22;10970;48.714;9.584;2023-05-13T03:39:33;9.90;99.90
21616;DHT22;10970;48.714;9.584;2023-05-13T03:41:58;9.80;99.90
21616;DHT22;10970;48.714;9.584;2023-05-13T03:44:24;9.80;99.90
21616;DHT22;10970;48.714;9.584;2023-05-13T03:46:50;9.80;99.90
21616;DHT22;10970;48.714;9.584;2023-05-13T03:49:15;9.80;99.90
21616;DHT22;10970;48.714;9.584;2023-05-13T03:51:43;9.80;99.90
21616;DHT22;10970;48.714;9.584;2023-05-13T03:54:08;9.80;99.90
21616;DHT22;10970;48.714;9.584;2023-05-13T03:56:34;9.80;99.90
21616;DHT22;10970;48.714;9.584;2023-05-13T03:59:00;9.90;99.90
21616;DHT22;10970;48.714;9.584;2023-05-13T04:01:25;9.80;99.90
21616;DHT22;10970;48.714;9.584;2023-05-13T04:03:51;9.90;99.90
21616;DHT22;10970;48.714;9.584;2023-05-13T04:06:16;9.80;99.90
21616;DHT22;10970;48.714;9.584;2023-05-13T04:08:42;9.80;99.90
21616;DHT22;10970;48.714;9.584;2023-05-13T04:11:08;9.80;99.90
21616;DHT22;10970;48.714;9.584;2023-05-13T04:13:34;9.90;99.90
21616;DHT22;10970;48.714;9.584;2023-05-13T04:16:00;9.90;99.90
21616;DHT22;10970;48.714;9.584;2023-05-13T04:18:32;9.90;99.90
21616;DHT22;10970;48.714;9.584;2023-05-13T04:20:58;9.90;99.90
21616;DHT22;10970;48.714;9.584;2023-05-13T04:23:23;9.90;99.90
21616;DHT22;10970;48.714;9.584;2023-05-13T04:25:52;9.90;99.90
21616;DHT22;10970;48.714;9.584;2023-05-13T04:28:18;9.90;99.90
21616;DHT22;10970;48.714;9.584;2023-05-13T04:30:45;9.90;99.90
21616;DHT22;10970;48.714;9.584;2023-05-13T04:33:10;9.90;99.90
21616;DHT22;10970;48.714;9.584;2023-05-13T04:35:36;9.90;99.90
21616;DHT22;10970;48.714;9.584;2023-05-13T04:38:03;10.00;99.90
21616;DHT22;10970;48.714;9.584;2023-05-13T04:40:28;10.00;99.90
21616;DHT22;10970;48.714;9.584;2023-05-13T04:42:54;10.00;99.90
21616;DHT22;10970;48.714;9.584;2023-05-13T04:45:20;10.00;99.90
21616;DHT22;10970;48.714;9.584;2023-05-13T04:47:47;10.00;99.90
21616;DHT22;10970;48.714;9.584;2023-05-13T04:50:12;10.10;99.90
21616;DHT22;10970;48.714;9.584;2023-05-13T04:52:38;10.10;99.90
21616;DHT22;10970;48.714;9.584;2023-05-13T04:55:10;10.10;99.90
21616;DHT22;10970;48.714;9.584;2023-05-13T04:57:36;10.10;99.90
21616;DHT22;10970;48.714;9.584;2023-05-13T05:00:02;10.10;99.90
21616;DHT22;10970;48.714;9.584;2023-05-13T05:02:28;10.10;99.90
21616;DHT22;10970;48.714;9.584;2023-05-13T05:04:55;10.20;99.90
21616;DHT22;10970;48.714;9.584;2023-05-13T05:07:20;10.20;99.90
21616;DHT22;10970;48.714;9.584;2023-05-13T05:09:46;10.20;99.90
21616;DHT22;10970;48.714;9.584;2023-05-13T05:12:12;10.30;99.90
21616;DHT22;10970;48.714;9.584;2023-05-13T05:14:38;10.30;99.90
21616;DHT22;10970;48.714;9.584;2023-05-13T05:17:03;10.30;99.90
21616;DHT22;10970;48.714;9.584;2023-05-13T05:19:29;10.30;99.90
21616;DHT22;10970;48.714;9.584;2023-05-13T05:21:55;10.30;99.90
21616;DHT22;10970;48.714;9.584;2023-05-13T05:24:20;10.30;99.90
21616;DHT22;10970;48.714;9.584;2023-05-13T05:26:46;10.40;99.90
21616;DHT22;10970;48.714;9.584;2023-05-13T05:29:12;10.40;99.90
21616;DHT22;10970;48.714;9.584;2023-05-13T05:31:37;10.40;99.90
21616;DHT22;10970;48.714;9.584;2023-05-13T05:34:03;10.50;99.90
21616;DHT22;10970;48.714;9.584;2023-05-13T05:36:29;10.50;99.90
21616;DHT22;10970;48.714;9.584;2023-05-13T05:38:55;10.60;99.90
21616;DHT22;10970;48.714;9.584;2023-05-13T05:41:21;10.60;99.90
21616;DHT22;10970;48.714;9.584;2023-05-13T05:43:47;10.70;99.90
21616;DHT22;10970;48.714;9.584;2023-05-13T05:46:13;10.60;99.90
21616;DHT22;10970;48.714;9.584;2023-05-13T05:48:38;10.70;99.90
21616;DHT22;10970;48.714;9.584;2023-05-13T05:51:04;10.70;99.90
21616;DHT22;10970;48.714;9.584;2023-05-13T05:53:30;10.80;99.90
21616;DHT22;10970;48.714;9.584;2023-05-13T05:55:56;10.90;99.90
21616;DHT22;10970;48.714;9.584;2023-05-13T05:58:22;10.90;99.90
21616;DHT22;10970;48.714;9.584;2023-05-13T06:00:48;10.90;99.90
21616;DHT22;10970;48.714;9.584;2023-05-13T06:03:13;11.00;99.90
21616;DHT22;10970;48.714;9.584;2023-05-13T06:05:39;11.00;99.90
21616;DHT22;10970;48.714;9.584;2023-05-13T06:08:05;11.10;99.90
21616;DHT22;10970;48.714;9.584;2023-05-13T06:10:31;11.20;99.90
21616;DHT22;10970;48.714;9.584;2023-05-13T06:12:56;11.20;99.90
21616;DHT22;10970;48.714;9.584;2023-05-13T06:15:22;11.20;99.90
21616;DHT22;10970;48.714;9.584;2023-05-13T06:17:47;11.20;99.90
21616;DHT22;10970;48.714;9.584;2023-05-13T06:20:13;11.30;99.90
21616;DHT22;10970;48.714;9.584;2023-05-13T06:22:39;11.40;99.90
21616;DHT22;10970;48.714;9.584;2023-05-13T06:25:06;11.50;99.90
21616;DHT22;10970;48.714;9.584;2023-05-13T06:27:32;11.70;99.90
21616;DHT22;10970;48.714;9.584;2023-05-13T06:29:59;11.80;99.90
21616;DHT22;10970;48.714;9.584;2023-05-13T06:32:24;11.80;99.90
21616;DHT22;10970;48.714;9.584;2023-05-13T06:34:50;11.70;99.90
21616;DHT22;10970;48.714;9.584;2023-05-13T06:37:17;11.60;99.90
21616;DHT22;10970;48.714;9.584;2023-05-13T06:39:42;11.70;99.90
21616;DHT22;10970;48.714;9.584;2023-05-13T06:42:09;11.70;99.90
21616;DHT22;10970;48.714;9.584;2023-05-13T06:44:35;11.70;99.90
21616;DHT22;10970;48.714;9.584;2023-05-13T06:47:03;11.60;99.90
21616;DHT22;10970;48.714;9.584;2023-05-13T06:49:34;11.60;99.90
21616;DHT22;10970;48.714;9.584;2023-05-13T06:52:00;11.60;99.90
21616;DHT22;10970;48.714;9.584;2023-05-13T06:54:27;11.50;99.90
21616;DHT22;10970;48.714;9.584;2023-05-13T06:56:54;11.50;99.90
21616;DHT22;10970;48.714;9.584;2023-05-13T07:01:50;11.50;99.90
21616;DHT22;10970;48.714;9.584;2023-05-13T07:04:16;11.50;99.90
21616;DHT22;10970;48.714;9.584;2023-05-13T07:06:42;11.50;99.90
21616;DHT22;10970;48.714;9.584;2023-05-13T07:09:09;11.60;99.90
21616;DHT22;10970;48.714;9.584;2023-05-13T07:11:36;11.70;99.90
21616;DHT22;10970;48.714;9.584;2023-05-13T07:14:03;11.80;99.90
21616;DHT22;10970;48.714;9.584;2023-05-13T07:16:31;11.90;99.90
21616;DHT22;10970;48.714;9.584;2023-05-13T07:18:57;12.00;99.90
21616;DHT22;10970;48.714;9.584;2023-05-13T07:21:23;12.10;99.90
21616;DHT22;10970;48.714;9.584;2023-05-13T07:23:49;12.00;99.90
21616;DHT22;10970;48.714;9.584;2023-05-13T07:26:15;12.20;99.90
21616;DHT22;10970;48.714;9.584;2023-05-13T07:28:41;12.20;99.90
21616;DHT22;10970;48.714;9.584;2023-05-13T07:31:08;12.40;99.90
21616;DHT22;10970;48.714;9.584;2023-05-13T07:33:35;12.50;99.90
21616;DHT22;10970;48.714;9.584;2023-05-13T07:36:02;12.30;99.90
21616;DHT22;10970;48.714;9.584;2023-05-13T07:38:29;12.30;99.90
21616;DHT22;10970;48.714;9.584;2023-05-13T07:40:56;12.40;99.90
21616;DHT22;10970;48.714;9.584;2023-05-13T07:43:23;12.30;99.90
21616;DHT22;10970;48.714;9.584;2023-05-13T07:45:51;12.30;99.90
21616;DHT22;10970;48.714;9.584;2023-05-13T07:48:17;12.30;99.90
21616;DHT22;10970;48.714;9.584;2023-05-13T07:50:46;12.20;99.90
21616;DHT22;10970;48.714;9.584;2023-05-13T07:53:23;12.30;99.90
21616;DHT22;10970;48.714;9.584;2023-05-13T07:55:49;12.30;99.90
21616;DHT22;10970;48.714;9.584;2023-05-13T07:58:15;12.30;99.90
21616;DHT22;10970;48.714;9.584;2023-05-13T08:00:43;12.40;99.90
21616;DHT22;10970;48.714;9.584;2023-05-13T08:03:10;12.50;99.90
21616;DHT22;10970;48.714;9.584;2023-05-13T08:05:37;12.50;99.90
21616;DHT22;10970;48.714;9.584;2023-05-13T08:08:03;12.50;99.90
21616;DHT22;10970;48.714;9.584;2023-05-13T08:10:30;12.60;99.90
21616;DHT22;10970;48.714;9.584;2023-05-13T08:12:57;12.50;99.90
21616;DHT22;10970;48.714;9.584;2023-05-13T08:15:26;12.50;99.90
21616;DHT22;10970;48.714;9.584;2023-05-13T08:17:52;12.50;99.90
21616;DHT22;10970;48.714;9.584;2023-05-13T08:20:19;12.50;99.90
21616;DHT22;10970;48.714;9.584;2023-05-13T08:22:47;12.50;99.90
21616;DHT22;10970;48.714;9.584;2023-05-13T08:25:14;12.60;99.90
21616;DHT22;10970;48.714;9.584;2023-05-13T08:27:40;12.70;99.90
21616;DHT22;10970;48.714;9.584;2023-05-13T08:30:06;12.70;99.90
21616;DHT22;10970;48.714;9.584;2023-05-13T08:32:33;12.70;99.90
21616;DHT22;10970;48.714;9.584;2023-05-13T08:35:00;12.80;99.90
21616;DHT22;10970;48.714;9.584;2023-05-13T08:37:26;12.80;99.90
21616;DHT22;10970;48.714;9.584;2023-05-13T08:39:52;12.90;99.90
21616;DHT22;10970;48.714;9.584;2023-05-13T08:42:21;12.90;99.90
21616;DHT22;10970;48.714;9.584;2023-05-13T08:44:53;12.80;99.90
21616;DHT22;10970;48.714;9.584;2023-05-13T08:50:06;13.10;99.90
21616;DHT22;10970;48.714;9.584;2023-05-13T08:52:34;13.20;99.90
21616;DHT22;10970;48.714;9.584;2023-05-13T08:55:02;13.30;99.90
21616;DHT22;10970;48.714;9.584;2023-05-13T08:57:32;13.40;99.90
21616;DHT22;10970;48.714;9.584;2023-05-13T08:59:58;13.40;99.90
21616;DHT22;10970;48.714;9.584;2023-05-13T09:02:24;13.20;99.90
21616;DHT22;10970;48.714;9.584;2023-05-13T09:04:53;13.20;99.90
21616;DHT22;10970;48.714;9.584;2023-05-13T09:07:24;13.10;99.90
21616;DHT22;10970;48.714;9.584;2023-05-13T09:09:51;13.00;99.90
21616;DHT22;10970;48.714;9.584;2023-05-13T09:15:14;13.30;99.90
21616;DHT22;10970;48.714;9.584;2023-05-13T09:17:44;13.40;99.90
21616;DHT22;10970;48.714;9.584;2023-05-13T09:20:13;13.40;99.90
21616;DHT22;10970;48.714;9.584;2023-05-13T09:22:56;13.40;99.90
21616;DHT22;10970;48.714;9.584;2023-05-13T09:25:22;13.40;99.90
21616;DHT22;10970;48.714;9.584;2023-05-13T09:27:54;13.30;99.90
21616;DHT22;10970;48.714;9.584;2023-05-13T09:30:26;13.40;99.90
21616;DHT22;10970;48.714;9.584;2023-05-13T09:38:18;13.10;99.90
21616;DHT22;10970;48.714;9.584;2023-05-13T09:43:20;13.00;99.90
21616;DHT22;10970;48.714;9.584;2023-05-13T09:46:01;13.00;99.90
21616;DHT22;10970;48.714;9.584;2023-05-13T09:48:31;13.00;99.90
21616;DHT22;10970;48.714;9.584;2023-05-13T09:50:59;13.00;99.90
21616;DHT22;10970;48.714;9.584;2023-05-13T09:53:26;13.10;99.90
21616;DHT22;10970;48.714;9.584;2023-05-13T09:55:56;13.20;99.90
21616;DHT22;10970;48.714;9.584;2023-05-13T09:58:26;13.30;99.90
21616;DHT22;10970;48.714;9.584;2023-05-13T10:00:55;13.20;99.90
21616;DHT22;10970;48.714;9.584;2023-05-13T10:03:23;13.20;99.90
21616;DHT22;10970;48.714;9.584;2023-05-13T10:05:53;13.20;99.90
21616;DHT22;10970;48.714;9.584;2023-05-13T10:08:21;13.20;99.90
21616;DHT22;10970;48.714;9.584;2023-05-13T10:10:49;13.20;99.90
21616;DHT22;10970;48.714;9.584;2023-05-13T10:13:17;13.20;99.90
21616;DHT22;10970;48.714;9.584;2023-05-13T10:15:50;13.20;99.90
21616;DHT22;10970;48.714;9.584;2023-05-13T10:18:17;13.30;99.90
21616;DHT22;10970;48.714;9.584;2023-05-13T10:20:44;13.30;99.90
21616;DHT22;10970;48.714;9.584;2023-05-13T10:23:10;13.30;99.90
21616;DHT22;10970;48.714;9.584;2023-05-13T10:25:37;13.20;99.90
21616;DHT22;10970;48.714;9.584;2023-05-13T10:28:03;13.40;99.90
21616;DHT22;10970;48.714;9.584;2023-05-13T10:30:30;13.40;99.90
21616;DHT22;10970;48.714;9.584;2023-05-13T10:32:57;13.60;99.90
21616;DHT22;10970;48.714;9.584;2023-05-13T10:35:27;13.70;99.90
21616;DHT22;10970;48.714;9.584;2023-05-13T10:38:13;13.80;99.90
21616;DHT22;10970;48.714;9.584;2023-05-13T10:40:47;13.90;99.90
21616;DHT22;10970;48.714;9.584;2023-05-13T10:43:26;13.70;99.90
21616;DHT22;10970;48.714;9.584;2023-05-13T10:45:57;13.60;99.90
21616;DHT22;10970;48.714;9.584;2023-05-13T10:48:23;13.60;99.90
21616;DHT22;10970;48.714;9.584;2023-05-13T10:50:57;13.60;99.90
21616;DHT22;10970;48.714;9.584;2023-05-13T10:53:30;13.90;99.90
21616;DHT22;10970;48.714;9.584;2023-05-13T10:55:58;13.80;99.90
21616;DHT22;10970;48.714;9.584;2023-05-13T10:58:28;13.80;99.90
21616;DHT22;10970;48.714;9.584;2023-05-13T11:03:58;13.80;99.90
21616;DHT22;10970;48.714;9.584;2023-05-13T11:06:41;14.20;99.90
21616;DHT22;10970;48.714;9.584;2023-05-13T11:11:36;14.60;99.90
21616;DHT22;10970;48.714;9.584;2023-05-13T11:14:06;14.80;99.90
21616;DHT22;10970;48.714;9.584;2023-05-13T11:16:36;14.90;99.90
21616;DHT22;10970;48.714;9.584;2023-05-13T11:19:26;14.70;99.90
21616;DHT22;10970;48.714;9.584;2023-05-13T11:21:54;14.30;99.90
21616;DHT22;10970;48.714;9.584;2023-05-13T11:24:21;14.40;99.90
21616;DHT22;10970;48.714;9.584;2023-05-13T11:26:55;14.40;99.90
21616;DHT22;10970;48.714;9.584;2023-05-13T11:29:34;14.60;99.90
21616;DHT22;10970;48.714;9.584;2023-05-13T11:32:01;14.50;99.90
21616;DHT22;10970;48.714;9.584;2023-05-13T11:34:28;14.50;99.90
21616;DHT22;10970;48.714;9.584;2023-05-13T11:37:05;14.40;99.90
21616;DHT22;10970;48.714;9.584;2023-05-13T11:39:32;14.40;99.90
21616;DHT22;10970;48.714;9.584;2023-05-13T11:41:58;14.30;99.90
21616;DHT22;10970;48.714;9.584;2023-05-13T11:44:26;14.20;99.90
21616;DHT22;10970;48.714;9.584;2023-05-13T11:49:36;14.40;99.90
21616;DHT22;10970;48.714;9.584;2023-05-13T11:52:05;14.60;99.90
21616;DHT22;10970;48.714;9.584;2023-05-13T11:54:31;15.00;99.90
21616;DHT22;10970;48.714;9.584;2023-05-13T11:56:57;15.30;99.90
21616;DHT22;10970;48.714;9.584;2023-05-13T11:59:23;15.40;99.90
21616;DHT22;10970;48.714;9.584;2023-05-13T12:02:07;15.50;99.90
21616;DHT22;10970;48.714;9.584;2023-05-13T12:04:33;15.80;99.90
21616;DHT22;10970;48.714;9.584;2023-05-13T12:06:58;15.80;99.90
21616;DHT22;10970;48.714;9.584;2023-05-13T12:09:24;15.50;99.90
21616;DHT22;10970;48.714;9.584;2023-05-13T12:11:50;15.40;99.90
21616;DHT22;10970;48.714;9.584;2023-05-13T12:14:18;15.00;99.90
21616;DHT22;10970;48.714;9.584;2023-05-13T12:16:45;14.90;99.90
21616;DHT22;10970;48.714;9.584;2023-05-13T12:19:10;14.80;99.90
21616;DHT22;10970;48.714;9.584;2023-05-13T12:21:37;14.70;99.90
21616;DHT22;10970;48.714;9.584;2023-05-13T12:24:23;14.60;99.90
21616;DHT22;10970;48.714;9.584;2023-05-13T12:26:49;14.60;99.90
21616;DHT22;10970;48.714;9.584;2023-05-13T12:29:14;14.40;99.90
21616;DHT22;10970;48.714;9.584;2023-05-13T12:32:02;14.30;99.90
21616;DHT22;10970;48.714;9.584;2023-05-13T12:34:32;14.30;99.90
21616;DHT22;10970;48.714;9.584;2023-05-13T12:37:11;14.40;99.90
21616;DHT22;10970;48.714;9.584;2023-05-13T12:39:38;14.40;99.90
21616;DHT22;10970;48.714;9.584;2023-05-13T12:42:04;14.50;99.90
21616;DHT22;10970;48.714;9.584;2023-05-13T12:44:30;14.80;99.90
21616;DHT22;10970;48.714;9.584;2023-05-13T12:46:56;14.90;99.90
21616;DHT22;10970;48.714;9.584;2023-05-13T12:49:22;14.80;99.90
21616;DHT22;10970;48.714;9.584;2023-05-13T12:51:48;14.80;99.90
21616;DHT22;10970;48.714;9.584;2023-05-13T12:54:16;14.90;99.90
21616;DHT22;10970;48.714;9.584;2023-05-13T12:56:42;14.90;99.90
21616;DHT22;10970;48.714;9.584;2023-05-13T12:59:08;14.80;99.90
21616;DHT22;10970;48.714;9.584;2023-05-13T13:01:34;14.50;99.90
21616;DHT22;10970;48.714;9.584;2023-05-13T13:04:00;14.30;99.90
21616;DHT22;10970;48.714;9.584;2023-05-13T13:06:26;14.20;99.90
21616;DHT22;10970;48.714;9.584;2023-05-13T13:08:51;14.10;99.90
21616;DHT22;10970;48.714;9.584;2023-05-13T13:11:17;14.10;99.90
21616;DHT22;10970;48.714;9.584;2023-05-13T13:13:47;14.10;99.90
21616;DHT22;10970;48.714;9.584;2023-05-13T13:16:13;14.10;99.90
21616;DHT22;10970;48.714;9.584;2023-05-13T13:18:39;14.10;99.90
21616;DHT22;10970;48.714;9.584;2023-05-13T13:21:05;14.30;99.90
21616;DHT22;10970;48.714;9.584;2023-05-13T13:23:32;14.50;99.90
21616;DHT22;10970;48.714;9.584;2023-05-13T13:25:58;14.90;99.90
21616;DHT22;10970;48.714;9.584;2023-05-13T13:28:24;14.90;99.90
21616;DHT22;10970;48.714;9.584;2023-05-13T13:30:50;15.00;99.90
21616;DHT22;10970;48.714;9.584;2023-05-13T13:33:16;15.20;99.90
21616;DHT22;10970;48.714;9.584;2023-05-13T13:35:43;15.40;99.90
21616;DHT22;10970;48.714;9.584;2023-05-13T13:38:09;15.50;99.90
21616;DHT22;10970;48.714;9.584;2023-05-13T13:40:34;15.50;99.90
21616;DHT22;10970;48.714;9.584;2023-05-13T13:43:02;15.60;99.90
21616;DHT22;10970;48.714;9.584;2023-05-13T13:45:27;15.60;99.90
21616;DHT22;10970;48.714;9.584;2023-05-13T13:47:53;15.30;99.90
21616;DHT22;10970;48.714;9.584;2023-05-13T13:50:19;15.30;99.90
21616;DHT22;10970;48.714;9.584;2023-05-13T13:52:44;15.40;99.90
21616;DHT22;10970;48.714;9.584;2023-05-13T13:55:10;15.20;99.90
21616;DHT22;10970;48.714;9.584;2023-05-13T13:57:37;15.30;99.90
21616;DHT22;10970;48.714;9.584;2023-05-13T14:00:04;15.00;99.90
21616;DHT22;10970;48.714;9.584;2023-05-13T14:02:29;14.70;99.90
21616;DHT22;10970;48.714;9.584;2023-05-13T14:04:55;14.80;99.90
21616;DHT22;10970;48.714;9.584;2023-05-13T14:07:21;14.60;99.90
21616;DHT22;10970;48.714;9.584;2023-05-13T14:09:46;14.50;99.90
21616;DHT22;10970;48.714;9.584;2023-05-13T14:12:12;14.30;99.90
21616;DHT22;10970;48.714;9.584;2023-05-13T14:14:38;14.30;99.90
21616;DHT22;10970;48.714;9.584;2023-05-13T14:17:04;14.10;99.90
21616;DHT22;10970;48.714;9.584;2023-05-13T14:19:29;14.00;99.90
21616;DHT22;10970;48.714;9.584;2023-05-13T14:21:55;13.90;99.90
21616;DHT22;10970;48.714;9.584;2023-05-13T14:24:21;13.80;99.90
21616;DHT22;10970;48.714;9.584;2023-05-13T14:26:47;13.80;99.90
21616;DHT22;10970;48.714;9.584;2023-05-13T14:29:13;13.90;99.90
21616;DHT22;10970;48.714;9.584;2023-05-13T14:31:39;13.90;99.90
21616;DHT22;10970;48.714;9.584;2023-05-13T14:34:04;14.10;99.90
21616;DHT22;10970;48.714;9.584;2023-05-13T14:36:31;14.50;99.90
21616;DHT22;10970;48.714;9.584;2023-05-13T14:38:57;14.80;99.90
21616;DHT22;10970;48.714;9.584;2023-05-13T14:41:23;15.10;99.90
21616;DHT22;10970;48.714;9.584;2023-05-13T14:43:50;15.40;99.90
21616;DHT22;10970;48.714;9.584;2023-05-13T14:46:16;15.70;99.90
21616;DHT22;10970;48.714;9.584;2023-05-13T14:48:41;15.90;99.90
21616;DHT22;10970;48.714;9.584;2023-05-13T14:51:07;15.70;99.90
21616;DHT22;10970;48.714;9.584;2023-05-13T14:53:33;15.80;99.90
21616;DHT22;10970;48.714;9.584;2023-05-13T14:55:59;15.70;99.90
21616;DHT22;10970;48.714;9.584;2023-05-13T14:58:25;16.00;99.90
21616;DHT22;10970;48.714;9.584;2023-05-13T15:00:50;16.00;99.90
21616;DHT22;10970;48.714;9.584;2023-05-13T15:03:16;15.70;99.90
21616;DHT22;10970;48.714;9.584;2023-05-13T15:05:43;15.60;99.90
21616;DHT22;10970;48.714;9.584;2023-05-13T15:08:10;15.30;99.90
21616;DHT22;10970;48.714;9.584;2023-05-13T15:10:36;15.40;99.90
21616;DHT22;10970;48.714;9.584;2023-05-13T15:13:01;15.40;99.90
21616;DHT22;10970;48.714;9.584;2023-05-13T15:15:27;15.50;99.90
21616;DHT22;10970;48.714;9.584;2023-05-13T15:17:53;15.40;99.90
21616;DHT22;10970;48.714;9.584;2023-05-13T15:20:18;15.30;99.90
21616;DHT22;10970;48.714;9.584;2023-05-13T15:22:44;15.40;99.90
21616;DHT22;10970;48.714;9.584;2023-05-13T15:25:10;15.40;99.90
21616;DHT22;10970;48.714;9.584;2023-05-13T15:27:36;15.40;99.90
21616;DHT22;10970;48.714;9.584;2023-05-13T15:30:01;15.30;99.90
21616;DHT22;10970;48.714;9.584;2023-05-13T15:32:27;15.00;99.90
21616;DHT22;10970;48.714;9.584;2023-05-13T15:34:53;14.80;99.90
21616;DHT22;10970;48.714;9.584;2023-05-13T15:37:18;14.80;99.90
21616;DHT22;10970;48.714;9.584;2023-05-13T15:39:44;14.60;99.90
21616;DHT22;10970;48.714;9.584;2023-05-13T15:42:10;14.50;99.90
21616;DHT22;10970;48.714;9.584;2023-05-13T15:44:35;14.40;99.90
21616;DHT22;10970;48.714;9.584;2023-05-13T15:47:02;14.40;99.90
21616;DHT22;10970;48.714;9.584;2023-05-13T15:49:30;14.30;99.90
21616;DHT22;10970;48.714;9.584;2023-05-13T15:51:58;14.20;99.90
21616;DHT22;10970;48.714;9.584;2023-05-13T15:54:23;14.10;99.90
21616;DHT22;10970;48.714;9.584;2023-05-13T15:56:49;14.20;99.90